createdAt,value
2023-02-25T00:00:16.492Z,0
2023-02-25T00:02:43.177Z,0
2023-02-25T00:07:36.558Z,0
2023-02-25T00:10:03.229Z,0
2023-02-25T00:12:29.919Z,0
2023-02-25T00:14:56.664Z,0
2023-02-25T00:17:23.319Z,0
2023-02-25T00:19:49.999Z,0
2023-02-25T00:22:16.706Z,0
2023-02-25T00:27:10.106Z,0
2023-02-25T00:29:36.857Z,0
2023-02-25T00:32:03.401Z,0
2023-02-25T00:34:30.082Z,0
2023-02-25T00:36:56.783Z,0
2023-02-25T00:39:22.044Z,0
2023-02-25T00:41:47.302Z,0
2023-02-25T00:44:13.926Z,0
2023-02-25T00:46:40.610Z,0
2023-02-25T00:51:34.032Z,0
2023-02-25T00:54:00.678Z,0
2023-02-25T00:58:54.043Z,0
2023-02-25T01:01:20.734Z,0
2023-02-25T01:03:47.416Z,0
2023-02-25T01:06:14.100Z,0
2023-02-25T01:08:40.807Z,0
2023-02-25T01:11:07.474Z,0
2023-02-25T01:13:32.690Z,0
2023-02-25T01:15:59.364Z,0
2023-02-25T01:18:26.054Z,0
2023-02-25T01:20:52.736Z,0
2023-02-25T01:23:19.431Z,0
2023-02-25T01:25:46.110Z,0
2023-02-25T01:28:12.817Z,0
2023-02-25T01:30:39.529Z,0
2023-02-25T01:33:06.155Z,0
2023-02-25T01:35:32.838Z,0
2023-02-25T01:37:59.528Z,0
2023-02-25T01:40:26.281Z,0
2023-02-25T01:42:51.466Z,0
2023-02-25T01:45:18.160Z,0
2023-02-25T01:47:43.389Z,0
2023-02-25T01:50:10.071Z,0
2023-02-25T01:52:36.761Z,0
2023-02-25T01:55:03.441Z,0
2023-02-25T01:57:30.126Z,0
2023-02-25T01:59:56.817Z,0
2023-02-25T02:02:23.503Z,0
2023-02-25T02:04:50.180Z,0
2023-02-25T02:07:16.901Z,0
2023-02-25T02:09:42.165Z,0
2023-02-25T02:12:08.793Z,0
2023-02-25T02:14:35.513Z,0
2023-02-25T02:19:27.399Z,0
2023-02-25T02:21:54.085Z,0
2023-02-25T02:24:20.764Z,0
2023-02-25T02:26:47.454Z,0
2023-02-25T02:29:14.137Z,0
2023-02-25T02:34:07.508Z,0
2023-02-25T02:36:34.191Z,0
2023-02-25T02:39:00.883Z,0
2023-02-25T02:41:27.560Z,0
2023-02-25T02:43:54.262Z,0
2023-02-25T02:46:19.497Z,0
2023-02-25T02:48:44.754Z,0
2023-02-25T02:51:11.468Z,0
2023-02-25T02:53:38.090Z,0
2023-02-25T02:56:04.869Z,0
2023-02-25T03:00:58.143Z,0
2023-02-25T03:03:24.846Z,0
2023-02-25T03:05:51.528Z,0
2023-02-25T03:08:18.193Z,0
2023-02-25T03:10:44.886Z,0
2023-02-25T03:13:11.581Z,0
2023-02-25T03:15:38.258Z,0
2023-02-25T03:18:04.937Z,0
2023-02-25T03:20:30.175Z,0
2023-02-25T03:22:56.907Z,0
2023-02-25T03:25:23.526Z,0
2023-02-25T03:27:50.222Z,0
2023-02-25T03:30:16.901Z,0
2023-02-25T03:32:43.697Z,0
2023-02-25T03:35:10.289Z,0
2023-02-25T03:37:36.968Z,0
2023-02-25T03:40:03.635Z,0
2023-02-25T03:42:30.335Z,0
2023-02-25T03:44:55.589Z,0
2023-02-25T03:47:20.868Z,0
2023-02-25T03:49:47.549Z,0
2023-02-25T03:52:14.186Z,0
2023-02-25T03:54:40.876Z,0
2023-02-25T03:57:07.544Z,0
2023-02-25T03:59:34.229Z,0
2023-02-25T04:02:00.969Z,0
2023-02-25T04:04:27.614Z,0
2023-02-25T04:06:54.280Z,0
2023-02-25T04:09:20.962Z,0
2023-02-25T04:11:47.677Z,0
2023-02-25T04:14:14.334Z,0
2023-02-25T04:16:41.020Z,0
2023-02-25T04:19:06.246Z,0
2023-02-25T04:21:32.948Z,0
2023-02-25T04:23:59.623Z,0
2023-02-25T04:26:26.299Z,0
2023-02-25T04:28:53.023Z,0
2023-02-25T04:31:19.673Z,0
2023-02-25T04:33:46.362Z,0
2023-02-25T04:36:13.024Z,0
2023-02-25T04:38:39.715Z,0
2023-02-25T04:41:06.415Z,0
2023-02-25T04:43:33.154Z,0
2023-02-25T04:45:59.781Z,0
2023-02-25T04:48:26.465Z,0
2023-02-25T04:50:51.703Z,0
2023-02-25T04:53:18.379Z,0
2023-02-25T04:55:45.068Z,0
2023-02-25T04:58:11.756Z,0
2023-02-25T05:00:38.436Z,0
2023-02-25T05:03:05.128Z,0
2023-02-25T05:05:31.831Z,0
2023-02-25T05:07:58.506Z,0
2023-02-25T05:10:25.186Z,0
2023-02-25T05:12:51.874Z,0
2023-02-25T05:15:18.566Z,0
2023-02-25T05:17:45.245Z,0
2023-02-25T05:20:11.917Z,0
2023-02-25T05:22:38.604Z,0
2023-02-25T05:25:05.301Z,0
2023-02-25T05:27:31.982Z,0
2023-02-25T05:29:57.273Z,0
2023-02-25T05:32:23.889Z,0
2023-02-25T05:34:50.577Z,0
2023-02-25T05:37:17.252Z,0
2023-02-25T05:39:43.943Z,0
2023-02-25T05:42:10.642Z,0
2023-02-25T05:44:37.333Z,0
2023-02-25T05:47:03.995Z,0
2023-02-25T05:49:29.241Z,4
2023-02-25T05:51:55.927Z,4
2023-02-25T05:54:22.605Z,4
2023-02-25T05:56:49.291Z,4
2023-02-25T05:59:15.967Z,12
2023-02-25T06:01:42.669Z,16
2023-02-25T06:06:36.029Z,32
2023-02-25T06:09:02.733Z,44
2023-02-25T06:11:29.412Z,52
2023-02-25T06:13:56.128Z,64
2023-02-25T06:16:22.785Z,68
2023-02-25T06:18:49.465Z,80
2023-02-25T06:21:14.678Z,92
2023-02-25T06:23:41.399Z,104
2023-02-25T06:26:08.075Z,128
2023-02-25T06:31:01.456Z,180
2023-02-25T06:33:28.176Z,184
2023-02-25T06:35:54.797Z,200
2023-02-25T06:38:21.496Z,212
2023-02-25T06:40:48.185Z,244
2023-02-25T06:43:14.852Z,248
2023-02-25T06:45:41.534Z,297
2023-02-25T06:48:08.220Z,437
2023-02-25T06:50:34.905Z,489
2023-02-25T06:53:01.603Z,457
2023-02-25T06:55:28.277Z,461
2023-02-25T06:57:54.973Z,437
2023-02-25T07:00:20.198Z,433
2023-02-25T07:02:46.889Z,453
2023-02-25T07:05:13.569Z,461
2023-02-25T07:07:40.285Z,449
2023-02-25T07:10:06.965Z,453
2023-02-25T07:12:33.624Z,401
2023-02-25T07:15:00.298Z,381
2023-02-25T07:17:27.108Z,381
2023-02-25T07:19:53.731Z,393
2023-02-25T07:22:20.350Z,473
2023-02-25T07:24:47.146Z,650
2023-02-25T07:27:13.736Z,750
2023-02-25T07:29:40.423Z,871
2023-02-25T07:32:05.734Z,1068
2023-02-25T07:34:32.338Z,1168
2023-02-25T07:36:59.006Z,1409
2023-02-25T07:39:25.704Z,1799
2023-02-25T07:41:52.389Z,1883
2023-02-25T07:44:19.129Z,2100
2023-02-25T07:46:45.765Z,2847
2023-02-25T07:49:12.448Z,3252
2023-02-25T07:51:39.134Z,3843
2023-02-25T07:54:05.811Z,4417
2023-02-25T07:56:32.499Z,4895
2023-02-25T07:58:59.181Z,4176
2023-02-25T08:01:25.900Z,3557
2023-02-25T08:03:51.087Z,2987
2023-02-25T08:06:17.815Z,2662
2023-02-25T08:08:44.462Z,2602
2023-02-25T08:11:11.150Z,2413
2023-02-25T08:13:37.856Z,2349
2023-02-25T08:16:04.583Z,2272
2023-02-25T08:20:57.891Z,3104
2023-02-25T08:23:24.605Z,3678
2023-02-25T08:25:51.254Z,4196
2023-02-25T08:28:17.945Z,4694
2023-02-25T08:30:44.644Z,4822
2023-02-25T08:33:11.342Z,5180
2023-02-25T08:35:36.554Z,6176
2023-02-25T08:40:29.926Z,8481
2023-02-25T08:42:56.685Z,10292
2023-02-25T08:45:23.343Z,10043
2023-02-25T08:50:16.653Z,10942
2023-02-25T08:52:41.905Z,16544
2023-02-25T08:55:07.113Z,9003
2023-02-25T08:57:33.815Z,6107
2023-02-25T09:00:00.492Z,4983
2023-02-25T09:02:27.184Z,4662
2023-02-25T09:04:53.861Z,4674
2023-02-25T09:07:20.558Z,5224
2023-02-25T09:09:47.241Z,4951
2023-02-25T09:12:13.926Z,5124
2023-02-25T09:14:40.605Z,5023
2023-02-25T09:17:07.296Z,5662
2023-02-25T09:19:32.553Z,6320
2023-02-25T09:21:57.773Z,6581
2023-02-25T09:24:24.459Z,7155
2023-02-25T09:26:51.149Z,7930
2023-02-25T09:29:17.824Z,6782
2023-02-25T09:31:44.529Z,6649
2023-02-25T09:34:11.265Z,5549
2023-02-25T09:36:37.906Z,5272
2023-02-25T09:39:04.564Z,5248
2023-02-25T09:41:31.290Z,5601
2023-02-25T09:43:57.941Z,7661
2023-02-25T09:46:24.623Z,9179
2023-02-25T09:48:51.320Z,25507
2023-02-25T09:51:18.058Z,20367
2023-02-25T09:53:43.243Z,34984
2023-02-25T09:56:09.900Z,18440
2023-02-25T09:58:36.615Z,8465
2023-02-25T10:01:03.272Z,7714
2023-02-25T10:03:29.953Z,7276
2023-02-25T10:05:56.641Z,6690
2023-02-25T10:08:23.381Z,6244
2023-02-25T10:10:50.117Z,6890
2023-02-25T10:13:16.699Z,6774
2023-02-25T10:15:43.373Z,6545
2023-02-25T10:18:10.070Z,6340
2023-02-25T10:20:36.764Z,5425
2023-02-25T10:23:03.546Z,4963
2023-02-25T10:25:30.123Z,4730
2023-02-25T10:27:55.358Z,4597
2023-02-25T10:30:22.028Z,5103
2023-02-25T10:32:48.738Z,5136
2023-02-25T10:35:15.426Z,4899
2023-02-25T10:37:42.105Z,4963
2023-02-25T10:40:08.786Z,4842
2023-02-25T10:42:35.493Z,4931
2023-02-25T10:45:02.157Z,5501
2023-02-25T10:47:28.824Z,5617
2023-02-25T10:49:55.505Z,5629
2023-02-25T10:52:22.193Z,5979
2023-02-25T10:54:49.147Z,5730
2023-02-25T10:57:15.740Z,5585
2023-02-25T10:59:40.960Z,5983
2023-02-25T11:02:07.474Z,6457
2023-02-25T11:04:34.251Z,7059
2023-02-25T11:07:00.850Z,7702
2023-02-25T11:09:27.663Z,7834
2023-02-25T11:11:54.362Z,7481
2023-02-25T11:14:21.095Z,8123
2023-02-25T11:16:47.790Z,7320
2023-02-25T11:19:14.438Z,7521
2023-02-25T11:21:40.961Z,7967
2023-02-25T11:24:07.641Z,8175
2023-02-25T11:26:34.415Z,8119
2023-02-25T11:29:01.156Z,8268
2023-02-25T11:31:26.414Z,6368
2023-02-25T11:33:53.094Z,3903
2023-02-25T11:36:19.783Z,3333
2023-02-25T11:38:46.435Z,2726
2023-02-25T11:41:12.971Z,2023
2023-02-25T11:43:39.734Z,1770
2023-02-25T11:46:06.484Z,1682
2023-02-25T11:48:33.128Z,1634
2023-02-25T11:50:59.773Z,1256
2023-02-25T11:53:26.393Z,1076
2023-02-25T11:55:53.184Z,1349
2023-02-25T11:58:19.900Z,1734
2023-02-25T12:00:46.586Z,2116
2023-02-25T12:03:11.729Z,2509
2023-02-25T12:05:38.496Z,2782
2023-02-25T12:08:05.053Z,3007
2023-02-25T12:10:31.736Z,3176
2023-02-25T12:12:58.412Z,3276
2023-02-25T12:15:25.314Z,3875
2023-02-25T12:17:51.967Z,4344
2023-02-25T12:20:18.607Z,3409
2023-02-25T12:22:45.189Z,2959
2023-02-25T12:25:11.850Z,2734
2023-02-25T12:27:38.523Z,2112
2023-02-25T12:30:05.216Z,1879
2023-02-25T12:32:31.899Z,2232
2023-02-25T12:34:57.157Z,2325
2023-02-25T12:37:23.805Z,1831
2023-02-25T12:39:50.480Z,1718
2023-02-25T12:42:17.167Z,1337
2023-02-25T12:44:43.873Z,1381
2023-02-25T12:47:10.543Z,1453
2023-02-25T12:49:37.219Z,1305
2023-02-25T12:52:03.927Z,1538
2023-02-25T12:54:30.619Z,1895
2023-02-25T12:56:57.336Z,1594
2023-02-25T12:59:23.968Z,1477
2023-02-25T13:01:50.643Z,1782
2023-02-25T13:04:17.331Z,2927
2023-02-25T13:06:42.577Z,4104
2023-02-25T13:09:09.249Z,4879
2023-02-25T13:11:35.925Z,4457
2023-02-25T13:14:02.612Z,4401
2023-02-25T13:16:29.303Z,4738
2023-02-25T13:18:56.028Z,4569
2023-02-25T13:21:22.659Z,4188
2023-02-25T13:23:49.358Z,4288
2023-02-25T13:26:16.034Z,4473
2023-02-25T13:28:42.739Z,4706
2023-02-25T13:31:09.411Z,3947
2023-02-25T13:33:36.153Z,3650
2023-02-25T13:36:02.784Z,3509
2023-02-25T13:38:28.036Z,2770
2023-02-25T13:40:54.686Z,3027
2023-02-25T13:43:21.457Z,3292
2023-02-25T13:45:48.065Z,3465
2023-02-25T13:48:14.737Z,3196
2023-02-25T13:50:41.432Z,3610
2023-02-25T13:53:08.117Z,4160
2023-02-25T13:55:34.806Z,4618
2023-02-25T13:58:01.492Z,4750
2023-02-25T14:00:26.731Z,4465
2023-02-25T14:02:53.432Z,4027
2023-02-25T14:05:20.138Z,3188
2023-02-25T14:07:46.786Z,2634
2023-02-25T14:10:13.465Z,2670
2023-02-25T14:12:40.153Z,3136
2023-02-25T14:15:06.845Z,3284
2023-02-25T14:17:33.521Z,3023
2023-02-25T14:20:00.213Z,2762
2023-02-25T14:22:26.896Z,2152
2023-02-25T14:24:53.578Z,2031
2023-02-25T14:27:20.264Z,1899
2023-02-25T14:29:46.954Z,1662
2023-02-25T14:32:12.170Z,1586
2023-02-25T14:34:38.929Z,1554
2023-02-25T14:37:05.553Z,2341
2023-02-25T14:39:32.232Z,2284
2023-02-25T14:41:58.909Z,1843
2023-02-25T14:44:25.636Z,1164
2023-02-25T14:46:52.302Z,1357
2023-02-25T14:49:18.970Z,1903
2023-02-25T14:51:45.813Z,2553
2023-02-25T14:54:12.511Z,2184
2023-02-25T14:56:39.025Z,1951
2023-02-25T14:59:05.715Z,1714
2023-02-25T15:03:59.077Z,859
2023-02-25T15:06:24.381Z,738
2023-02-25T15:08:51.025Z,650
2023-02-25T15:11:17.671Z,859
2023-02-25T15:13:44.370Z,823
2023-02-25T15:16:11.086Z,754
2023-02-25T15:18:37.833Z,771
2023-02-25T15:21:04.460Z,730
2023-02-25T15:23:31.108Z,530
2023-02-25T15:25:57.791Z,570
2023-02-25T15:28:24.506Z,754
2023-02-25T15:30:51.163Z,947
2023-02-25T15:33:17.859Z,1096
2023-02-25T15:35:44.542Z,1208
2023-02-25T15:38:09.752Z,1268
2023-02-25T15:40:36.430Z,1172
2023-02-25T15:43:03.159Z,1100
2023-02-25T15:45:29.804Z,935
2023-02-25T15:47:56.570Z,947
2023-02-25T15:50:23.198Z,807
2023-02-25T15:52:49.866Z,413
2023-02-25T15:55:16.550Z,273
2023-02-25T15:57:43.313Z,252
2023-02-25T16:00:09.916Z,208
2023-02-25T16:02:36.602Z,204
2023-02-25T16:05:03.308Z,228
2023-02-25T16:07:29.961Z,192
2023-02-25T16:09:55.204Z,192
2023-02-25T16:12:21.889Z,176
2023-02-25T16:14:48.585Z,220
2023-02-25T16:17:15.238Z,236
2023-02-25T16:19:41.924Z,232
2023-02-25T16:22:08.617Z,208
2023-02-25T16:24:35.318Z,164
2023-02-25T16:27:02.061Z,132
2023-02-25T16:29:28.671Z,132
2023-02-25T16:31:55.355Z,128
2023-02-25T16:34:22.040Z,120
2023-02-25T16:36:48.724Z,104
2023-02-25T16:39:15.414Z,96
2023-02-25T16:41:40.628Z,80
2023-02-25T16:44:07.321Z,72
2023-02-25T16:46:34.003Z,64
2023-02-25T16:49:00.798Z,68
2023-02-25T16:51:27.429Z,68
2023-02-25T16:53:54.061Z,56
2023-02-25T16:56:20.781Z,60
2023-02-25T16:58:47.418Z,60
2023-02-25T17:01:14.134Z,48
2023-02-25T17:03:40.800Z,40
2023-02-25T17:06:07.551Z,32
2023-02-25T17:08:34.177Z,20
2023-02-25T17:11:00.879Z,16
2023-02-25T17:13:26.067Z,8
2023-02-25T17:15:52.756Z,4
2023-02-25T17:18:19.436Z,4
2023-02-25T17:20:46.128Z,4
2023-02-25T17:23:12.859Z,4
2023-02-25T17:25:39.545Z,0
2023-02-25T17:30:32.963Z,0
2023-02-25T17:32:59.553Z,0
2023-02-25T17:35:26.224Z,0
2023-02-25T17:37:53.002Z,0
2023-02-25T17:40:19.605Z,0
2023-02-25T17:42:46.326Z,0
2023-02-25T17:45:11.527Z,0
2023-02-25T17:47:38.206Z,0
2023-02-25T17:50:04.895Z,0
2023-02-25T17:52:31.574Z,0
2023-02-25T17:54:58.389Z,0
2023-02-25T17:57:25.047Z,0
2023-02-25T17:59:51.650Z,0
2023-02-25T18:02:18.311Z,0
2023-02-25T18:04:45.000Z,0
2023-02-25T18:07:11.694Z,0
2023-02-25T18:09:38.375Z,0
2023-02-25T18:12:05.076Z,0
2023-02-25T18:14:31.738Z,0
2023-02-25T18:16:57.074Z,0
2023-02-25T18:19:23.696Z,0
2023-02-25T18:21:50.369Z,0
2023-02-25T18:26:43.831Z,0
2023-02-25T18:29:10.412Z,0
2023-02-25T18:31:37.179Z,0
2023-02-25T18:34:03.765Z,0
2023-02-25T18:36:30.482Z,0
2023-02-25T18:38:57.127Z,0
2023-02-25T18:41:23.814Z,0
2023-02-25T18:43:50.570Z,0
2023-02-25T18:46:17.281Z,0
2023-02-25T18:48:42.519Z,0
2023-02-25T18:51:09.204Z,0
2023-02-25T18:53:35.776Z,0
2023-02-25T18:56:02.464Z,0
2023-02-25T18:58:29.146Z,0
2023-02-25T19:00:56.007Z,0
2023-02-25T19:03:22.517Z,0
2023-02-25T19:05:49.328Z,0
2023-02-25T19:08:15.889Z,0
2023-02-25T19:10:42.601Z,0
2023-02-25T19:13:09.284Z,0
2023-02-25T19:15:35.937Z,0
2023-02-25T19:18:02.797Z,0
2023-02-25T19:20:27.860Z,0
2023-02-25T19:22:54.602Z,0
2023-02-25T19:25:21.260Z,0
2023-02-25T19:27:47.920Z,0
2023-02-25T19:30:14.595Z,0
2023-02-25T19:32:41.295Z,0
2023-02-25T19:35:08.023Z,0
2023-02-25T19:37:34.773Z,0
2023-02-25T19:40:01.363Z,0
2023-02-25T19:42:28.024Z,0
2023-02-25T19:44:54.794Z,0
2023-02-25T19:47:21.499Z,0
2023-02-25T19:49:48.141Z,0
2023-02-25T19:52:13.368Z,0
2023-02-25T19:54:40.143Z,0
2023-02-25T19:57:06.745Z,0
2023-02-25T19:59:33.353Z,0
2023-02-25T20:02:00.055Z,0
2023-02-25T20:04:26.858Z,0
2023-02-25T20:06:53.460Z,0
2023-02-25T20:09:20.163Z,0
2023-02-25T20:11:46.933Z,0
2023-02-25T20:14:13.610Z,0
2023-02-25T20:16:40.214Z,0
2023-02-25T20:19:06.945Z,0
2023-02-25T20:21:33.517Z,0
2023-02-25T20:23:58.812Z,0
2023-02-25T20:26:25.502Z,0
2023-02-25T20:28:52.134Z,0
2023-02-25T20:31:18.810Z,0
2023-02-25T20:33:45.583Z,0
2023-02-25T20:36:12.166Z,0
2023-02-25T20:38:38.859Z,0
2023-02-25T20:41:05.609Z,0
2023-02-25T20:43:32.358Z,0
2023-02-25T20:45:58.912Z,0
2023-02-25T20:48:25.595Z,0
2023-02-25T20:50:52.328Z,0
2023-02-25T20:53:18.967Z,0
2023-02-25T20:55:45.758Z,0
2023-02-25T20:58:12.338Z,0
2023-02-25T21:00:39.058Z,0
2023-02-25T21:03:04.280Z,0
2023-02-25T21:05:30.936Z,0
2023-02-25T21:07:57.676Z,0
2023-02-25T21:10:24.300Z,0
2023-02-25T21:12:50.966Z,0
2023-02-25T21:15:17.686Z,0
2023-02-25T21:17:44.403Z,0
2023-02-25T21:20:11.045Z,0
2023-02-25T21:22:37.730Z,0
2023-02-25T21:25:04.402Z,0
2023-02-25T21:27:31.119Z,0
2023-02-25T21:29:57.786Z,0
2023-02-25T21:32:24.514Z,0
2023-02-25T21:34:51.154Z,0
2023-02-25T21:37:16.380Z,0
2023-02-25T21:39:43.066Z,0
2023-02-25T21:42:09.766Z,0
2023-02-25T21:44:36.422Z,0
2023-02-25T21:47:03.110Z,0
2023-02-25T21:49:29.867Z,0
2023-02-25T21:51:56.505Z,0
2023-02-25T21:54:23.172Z,0
2023-02-25T21:56:49.880Z,0
2023-02-25T21:59:16.561Z,0
2023-02-25T22:01:43.267Z,0
2023-02-25T22:06:36.606Z,0
2023-02-25T22:09:01.885Z,0
2023-02-25T22:11:27.124Z,0
2023-02-25T22:13:53.749Z,0
2023-02-25T22:16:20.434Z,0
2023-02-25T22:18:47.162Z,0
2023-02-25T22:23:40.496Z,0
2023-02-25T22:26:07.181Z,0
2023-02-25T22:28:33.952Z,0
2023-02-25T22:31:00.536Z,0
2023-02-25T22:33:27.238Z,0
2023-02-25T22:35:53.929Z,0
2023-02-25T22:38:20.600Z,0
2023-02-25T22:40:47.299Z,0
2023-02-25T22:43:12.505Z,0
2023-02-25T22:50:32.573Z,0
2023-02-25T22:52:57.890Z,0
2023-02-25T22:57:49.744Z,0
2023-02-25T23:00:16.425Z,0
2023-02-25T23:02:43.108Z,0
2023-02-25T23:05:09.818Z,0
2023-02-25T23:07:36.469Z,0
2023-02-25T23:10:03.150Z,0
2023-02-25T23:12:29.956Z,0
2023-02-25T23:14:56.521Z,0
2023-02-25T23:17:23.220Z,0
2023-02-25T23:19:49.881Z,0
2023-02-25T23:22:16.590Z,0
2023-02-25T23:24:41.832Z,0
2023-02-25T23:27:07.065Z,0
2023-02-25T23:29:33.769Z,0
2023-02-25T23:32:00.439Z,0
2023-02-25T23:34:27.191Z,0
2023-02-25T23:36:53.815Z,0
2023-02-25T23:39:20.504Z,0
2023-02-25T23:41:47.171Z,0
2023-02-25T23:44:13.885Z,0
2023-02-25T23:46:40.689Z,0
2023-02-25T23:49:07.272Z,0
2023-02-25T23:51:33.904Z,0
2023-02-25T23:54:00.799Z,0
2023-02-25T23:56:27.458Z,0
